Time;durP1;ratioP1;P1;durP2;ratioP2;P2;SDS_P1;SDS_P2;PMS_P1;PMS_P2;Temp;Humidity;BMP_temperature;BMP_pressure;BME280_temperature;BME280_humidity;BME280_pressure;Samples;Min_cycle;Max_cycle;Signal;HPM_P1;HPM_P2
2020/12/10 00:01:09;;;;;;;122.97;41.70;;;3.10;99.90;;;;;;5066179;28;20035;-83
2020/12/10 00:03:36;;;;;;;117.63;38.55;;;3.10;99.90;;;;;;5073551;28;20396;-84
2020/12/10 00:06:02;;;;;;;114.18;38.75;;;3.30;99.90;;;;;;5073036;28;20024;-83
2020/12/10 00:08:27;;;;;;;104.10;36.47;;;3.40;99.90;;;;;;5073074;28;20024;-83
2020/12/10 00:10:53;;;;;;;126.20;42.88;;;3.40;99.90;;;;;;5087547;28;20095;-83
2020/12/10 00:13:18;;;;;;;121.03;39.35;;;3.20;99.90;;;;;;5062608;28;20481;-83
2020/12/10 00:15:44;;;;;;;112.93;39.08;;;3.20;99.90;;;;;;5071279;28;20020;-83
2020/12/10 00:18:10;;;;;;;119.43;40.20;;;3.30;99.90;;;;;;5072585;28;20031;-83
2020/12/10 00:20:35;;;;;;;108.00;37.83;;;3.20;99.90;;;;;;5072603;28;20017;-82
2020/12/10 00:23:01;;;;;;;113.68;39.95;;;3.30;99.90;;;;;;5090535;28;20476;-82
2020/12/10 00:25:26;;;;;;;107.88;38.00;;;3.30;99.90;;;;;;5070423;28;20051;-83
2020/12/10 00:27:52;;;;;;;111.95;39.42;;;3.30;99.90;;;;;;5072236;28;20077;-83
2020/12/10 00:30:17;;;;;;;122.60;39.08;;;3.40;99.90;;;;;;5089583;28;20035;-82
2020/12/10 00:32:43;;;;;;;108.25;37.78;;;3.20;99.90;;;;;;5070449;28;20024;-82
2020/12/10 00:35:09;;;;;;;115.78;38.08;;;3.20;99.90;;;;;;5072600;28;20392;-83
2020/12/10 00:37:36;;;;;;;112.05;38.83;;;3.30;99.90;;;;;;5071204;28;20100;-82
2020/12/10 00:40:05;;;;;;;122.07;41.95;;;3.40;99.90;;;;;;5072541;28;20026;-83
2020/12/10 00:42:30;;;;;;;107.53;38.13;;;3.40;99.90;;;;;;5068982;28;20043;-83
2020/12/10 00:44:56;;;;;;;114.28;39.10;;;3.30;99.90;;;;;;5072292;28;20024;-83
2020/12/10 00:47:21;;;;;;;117.70;38.78;;;3.30;99.90;;;;;;5072059;28;20499;-83
2020/12/10 00:49:47;;;;;;;112.38;40.00;;;3.30;99.90;;;;;;5071477;28;20022;-83
2020/12/10 00:52:14;;;;;;;121.57;42.00;;;3.30;99.90;;;;;;5071871;28;20058;-83
2020/12/10 00:54:40;;;;;;;129.82;40.72;;;3.20;99.90;;;;;;5072038;28;20020;-83
2020/12/10 00:57:09;;;;;;;124.53;41.58;;;3.20;99.90;;;;;;5069231;28;20034;-83
2020/12/10 00:59:35;;;;;;;116.72;42.30;;;3.20;99.90;;;;;;5089941;28;20027;-83
2020/12/10 01:02:01;;;;;;;125.93;42.53;;;3.30;99.90;;;;;;5071611;28;20771;-83
2020/12/10 01:04:26;;;;;;;124.25;42.70;;;3.30;99.90;;;;;;5072083;28;20054;-84
2020/12/10 01:06:52;;;;;;;139.50;44.33;;;3.20;99.90;;;;;;5089870;28;20107;-83
2020/12/10 01:09:18;;;;;;;133.80;43.42;;;3.10;99.90;;;;;;5071787;28;20016;-83
2020/12/10 01:11:43;;;;;;;128.52;41.53;;;3.10;99.90;;;;;;5071549;28;20028;-83
2020/12/10 01:14:09;;;;;;;130.95;44.95;;;3.10;99.90;;;;;;5068991;28;20097;-82
2020/12/10 01:16:35;;;;;;;128.30;42.95;;;3.10;99.90;;;;;;5088967;28;20028;-83
2020/12/10 01:19:00;;;;;;;130.68;44.72;;;3.00;99.90;;;;;;5071926;28;20598;-83
2020/12/10 01:21:36;;;;;;;125.07;44.47;;;3.10;99.90;;;;;;5081527;28;20032;-83
2020/12/10 01:24:03;;;;;;;136.75;45.50;;;3.10;99.90;;;;;;5071379;28;20020;-83
2020/12/10 01:26:33;;;;;;;125.05;44.25;;;3.10;99.90;;;;;;5089723;28;20040;-82
2020/12/10 01:28:59;;;;;;;134.18;44.75;;;3.10;99.90;;;;;;5064785;28;20500;-83
2020/12/10 01:31:24;;;;;;;141.35;43.40;;;3.00;99.90;;;;;;5071388;28;20024;-83
2020/12/10 01:33:50;;;;;;;134.23;46.63;;;3.10;99.90;;;;;;5071429;28;20039;-83
2020/12/10 01:36:24;;;;;;;131.63;43.75;;;3.10;99.90;;;;;;5070985;28;20110;-82
2020/12/10 01:38:50;;;;;;;124.72;40.75;;;3.00;99.90;;;;;;5065351;28;20412;-83
2020/12/10 01:41:17;;;;;;;144.15;48.83;;;3.00;99.90;;;;;;5071819;28;20032;-82
2020/12/10 01:43:43;;;;;;;145.30;47.55;;;3.10;99.90;;;;;;5087761;28;20110;-83
2020/12/10 01:46:08;;;;;;;134.35;46.15;;;3.00;99.90;;;;;;5071042;28;20122;-83
2020/12/10 01:48:35;;;;;;;124.97;44.28;;;3.10;99.90;;;;;;5064153;28;20046;-83
2020/12/10 01:51:01;;;;;;;117.25;41.10;;;3.10;99.90;;;;;;5071607;28;20119;-83
2020/12/10 01:53:27;;;;;;;137.75;45.40;;;3.10;99.90;;;;;;5070454;28;20468;-83
2020/12/10 01:55:53;;;;;;;119.40;40.88;;;3.10;99.90;;;;;;5088717;28;20028;-82
2020/12/10 01:58:19;;;;;;;123.50;42.70;;;3.00;99.90;;;;;;5070360;28;20024;-82
2020/12/10 02:00:44;;;;;;;128.95;43.05;;;3.10;99.90;;;;;;5070517;28;20384;-83
2020/12/10 02:03:10;;;;;;;132.85;46.50;;;3.00;99.90;;;;;;5070577;28;20039;-83
2020/12/10 02:05:46;;;;;;;125.53;44.53;;;3.10;99.90;;;;;;5070537;28;20030;-83
2020/12/10 02:08:12;;;;;;;139.38;44.78;;;3.10;99.90;;;;;;5071433;28;20028;-83
2020/12/10 02:10:37;;;;;;;141.52;45.60;;;3.10;99.90;;;;;;5071144;28;20378;-83
2020/12/10 02:13:03;;;;;;;128.48;44.03;;;3.10;99.90;;;;;;5070476;28;20024;-84
2020/12/10 02:15:29;;;;;;;128.20;42.35;;;3.10;99.90;;;;;;5070708;28;20024;-83
2020/12/10 02:17:55;;;;;;;131.77;44.75;;;3.10;99.90;;;;;;5070653;28;20055;-83
2020/12/10 02:20:22;;;;;;;133.57;43.67;;;3.20;99.90;;;;;;5071407;28;20503;-83
2020/12/10 02:23:05;;;;;;;122.75;42.30;;;3.10;99.90;;;;;;5071090;28;20544;-83
2020/12/10 02:25:32;;;;;;;133.95;44.67;;;3.10;99.90;;;;;;5084227;28;20500;-83
2020/12/10 02:28:11;;;;;;;136.23;46.95;;;3.20;99.90;;;;;;5070862;28;20031;-83
2020/12/10 02:30:37;;;;;;;132.55;42.35;;;3.10;99.90;;;;;;5069615;28;20024;-83
2020/12/10 02:33:05;;;;;;;133.43;43.97;;;3.00;99.90;;;;;;5070784;28;20116;-83
2020/12/10 02:35:31;;;;;;;145.40;47.45;;;3.10;99.90;;;;;;5071144;28;20033;-83
2020/12/10 02:37:58;;;;;;;137.00;46.30;;;3.10;99.90;;;;;;5088630;28;20027;-83
2020/12/10 02:40:26;;;;;;;139.32;47.55;;;3.20;99.90;;;;;;5089086;28;20103;-83
2020/12/10 02:42:52;;;;;;;150.50;46.65;;;3.20;99.90;;;;;;5070566;28;20515;-83
2020/12/10 02:45:19;;;;;;;127.65;42.88;;;3.10;99.90;;;;;;5070513;28;20016;-83
2020/12/10 02:47:46;;;;;;;122.28;42.53;;;3.10;99.90;;;;;;5070543;28;20035;-84
2020/12/10 02:50:12;;;;;;;130.70;44.42;;;3.10;99.90;;;;;;5072418;28;20042;-83
2020/12/10 02:52:38;;;;;;;139.60;45.83;;;3.10;99.90;;;;;;5071461;28;20031;-83
2020/12/10 02:55:03;;;;;;;131.55;41.47;;;3.00;99.90;;;;;;5073138;28;20476;-83
2020/12/10 02:57:29;;;;;;;126.88;44.85;;;3.00;99.90;;;;;;5074148;28;20028;-83
2020/12/10 02:59:55;;;;;;;126.80;44.00;;;3.00;99.90;;;;;;5073990;28;20028;-83
2020/12/10 03:02:20;;;;;;;126.45;44.35;;;3.00;99.90;;;;;;5074460;28;20036;-83
2020/12/10 03:04:47;;;;;;;117.30;42.20;;;3.00;99.90;;;;;;5073987;28;20131;-83
2020/12/10 03:07:14;;;;;;;130.43;46.80;;;3.00;99.90;;;;;;5074239;28;20495;-83
2020/12/10 03:09:39;;;;;;;119.93;44.67;;;3.10;99.90;;;;;;5074274;28;20020;-83
2020/12/10 03:12:05;;;;;;;130.48;44.80;;;3.10;99.90;;;;;;5074010;28;20032;-83
2020/12/10 03:14:31;;;;;;;135.18;46.50;;;3.10;99.90;;;;;;5073994;28;20020;-83
2020/12/10 03:16:56;;;;;;;122.57;44.15;;;3.10;99.90;;;;;;5073649;28;20185;-82
2020/12/10 03:19:22;;;;;;;134.60;45.05;;;3.10;99.90;;;;;;5091792;28;20024;-83
2020/12/10 03:21:47;;;;;;;130.88;45.22;;;3.10;99.90;;;;;;5073432;28;20043;-83
2020/12/10 03:24:13;;;;;;;139.50;45.35;;;3.10;99.90;;;;;;5073258;28;20074;-83
2020/12/10 03:26:38;;;;;;;139.68;45.50;;;3.00;99.90;;;;;;5073166;28;20522;-83
2020/12/10 03:29:07;;;;;;;140.18;44.67;;;3.00;99.90;;;;;;5073628;28;20032;-83
2020/12/10 03:31:34;;;;;;;132.93;46.90;;;3.00;99.90;;;;;;5073138;28;20059;-82
2020/12/10 03:34:00;;;;;;;138.13;44.50;;;3.10;99.90;;;;;;5074356;28;20024;-83
2020/12/10 03:36:25;;;;;;;138.68;47.28;;;3.00;99.90;;;;;;5091989;28;20036;-83
2020/12/10 03:38:51;;;;;;;135.27;47.53;;;3.00;99.90;;;;;;5074913;28;20110;-84
2020/12/10 03:41:17;;;;;;;138.30;43.53;;;3.00;99.90;;;;;;5070700;28;20036;-84
2020/12/10 03:43:42;;;;;;;143.63;46.33;;;3.10;99.90;;;;;;5091188;28;20099;-83
2020/12/10 03:46:08;;;;;;;151.07;48.72;;;3.10;99.90;;;;;;5073704;28;20390;-83
2020/12/10 03:48:33;;;;;;;159.48;49.60;;;3.10;99.90;;;;;;5073900;28;20020;-83
2020/12/10 03:50:59;;;;;;;153.55;49.50;;;3.10;99.90;;;;;;5090913;28;20028;-83
2020/12/10 03:53:24;;;;;;;143.82;46.50;;;3.00;99.90;;;;;;5073664;28;20460;-84
2020/12/10 03:55:50;;;;;;;152.25;48.00;;;3.00;99.90;;;;;;5073174;28;20111;-83
2020/12/10 03:58:15;;;;;;;176.85;52.30;;;3.10;99.90;;;;;;5072269;28;20032;-83
2020/12/10 04:00:41;;;;;;;166.15;50.17;;;3.20;99.90;;;;;;5073196;28;20062;-84
2020/12/10 04:03:07;;;;;;;155.50;46.42;;;3.20;99.90;;;;;;5072664;28;20089;-83
2020/12/10 04:05:32;;;;;;;158.60;47.42;;;3.20;99.90;;;;;;5072209;28;20031;-83
2020/12/10 04:07:58;;;;;;;169.07;50.00;;;3.20;99.90;;;;;;5065106;28;20028;-83
2020/12/10 04:10:23;;;;;;;170.55;52.13;;;3.20;99.90;;;;;;5073644;28;20026;-83
2020/12/10 04:12:49;;;;;;;159.40;50.88;;;3.20;99.90;;;;;;5072606;28;20026;-83
2020/12/10 04:15:14;;;;;;;160.05;49.85;;;3.20;99.90;;;;;;5072666;28;20368;-83
2020/12/10 04:17:40;;;;;;;154.55;49.28;;;3.10;99.90;;;;;;5071207;28;20040;-83
2020/12/10 04:20:05;;;;;;;157.45;49.70;;;3.10;99.90;;;;;;5072611;28;20080;-83
2020/12/10 04:22:31;;;;;;;163.50;52.88;;;3.10;99.90;;;;;;5072186;28;20036;-83
2020/12/10 04:24:57;;;;;;;149.95;49.17;;;3.10;99.90;;;;;;5072572;28;20120;-83
2020/12/10 04:27:23;;;;;;;160.32;50.72;;;3.10;99.90;;;;;;5069811;28;20082;-83
2020/12/10 04:29:48;;;;;;;169.57;56.17;;;3.10;99.90;;;;;;5070938;28;20476;-83
2020/12/10 04:32:14;;;;;;;170.45;52.95;;;3.10;99.90;;;;;;5089625;28;20079;-83
2020/12/10 04:34:40;;;;;;;178.27;53.17;;;3.10;99.90;;;;;;5070116;28;20017;-83
2020/12/10 04:37:06;;;;;;;183.90;52.20;;;3.10;99.90;;;;;;5087172;28;20034;-83
2020/12/10 04:39:31;;;;;;;191.23;58.03;;;3.20;99.90;;;;;;5072590;28;20028;-83
2020/12/10 04:41:57;;;;;;;191.35;57.55;;;3.20;99.90;;;;;;5071435;28;20085;-83
2020/12/10 04:44:23;;;;;;;183.43;52.78;;;3.20;99.90;;;;;;5072078;28;20020;-82
2020/12/10 04:46:50;;;;;;;185.88;53.05;;;3.20;99.90;;;;;;5071693;28;20024;-83
2020/12/10 04:49:16;;;;;;;193.88;51.88;;;3.10;99.90;;;;;;5070480;28;20020;-83
2020/12/10 04:51:43;;;;;;;176.05;53.67;;;3.10;99.90;;;;;;5068070;28;20107;-83
2020/12/10 04:54:09;;;;;;;197.95;55.45;;;3.10;99.90;;;;;;5069141;28;20591;-83
2020/12/10 04:56:35;;;;;;;193.02;56.10;;;3.10;99.90;;;;;;5071427;28;20024;-83
2020/12/10 04:59:02;;;;;;;172.30;53.22;;;3.10;99.90;;;;;;5071064;28;20031;-82
2020/12/10 05:01:28;;;;;;;190.50;53.90;;;3.10;99.90;;;;;;5071261;28;20036;-84
2020/12/10 05:03:56;;;;;;;185.00;53.97;;;3.20;99.90;;;;;;5071064;28;20024;-82
2020/12/10 05:06:22;;;;;;;179.43;54.13;;;3.10;99.90;;;;;;5071610;28;20039;-83
2020/12/10 05:08:47;;;;;;;213.57;56.67;;;3.10;99.90;;;;;;5063232;28;20024;-83
2020/12/10 05:11:13;;;;;;;203.73;57.10;;;3.20;99.90;;;;;;5071301;28;20024;-83
2020/12/10 05:13:46;;;;;;;221.75;56.90;;;3.20;99.90;;;;;;5071394;28;20499;-82
2020/12/10 05:16:22;;;;;;;196.70;55.30;;;3.20;99.90;;;;;;5071964;28;20032;-83
2020/12/10 05:18:49;;;;;;;199.85;53.65;;;3.20;99.90;;;;;;5087433;28;20032;-83
2020/12/10 05:21:16;;;;;;;196.63;58.10;;;3.30;99.90;;;;;;5089813;28;20032;-83
2020/12/10 05:23:41;;;;;;;182.98;53.17;;;3.30;99.90;;;;;;5070910;28;20020;-83
2020/12/10 05:26:09;;;;;;;212.40;58.38;;;3.20;99.90;;;;;;5110874;28;20073;-84
2020/12/10 05:28:40;;;;;;;227.10;60.95;;;3.20;99.90;;;;;;5097293;28;20029;-84
2020/12/10 05:31:08;;;;;;;226.05;61.40;;;3.20;99.90;;;;;;5097853;28;20011;-84
2020/12/10 05:33:34;;;;;;;198.75;54.63;;;3.20;99.90;;;;;;5097582;28;20036;-84
2020/12/10 05:36:07;;;;;;;217.70;59.03;;;3.20;99.90;;;;;;5085225;28;20056;-84
2020/12/10 05:38:53;;;;;;;210.18;59.13;;;3.20;99.90;;;;;;5097232;28;20004;-84
2020/12/10 05:41:20;;;;;;;190.70;55.15;;;3.20;99.90;;;;;;5096746;28;20024;-85
2020/12/10 05:43:46;;;;;;;215.02;60.17;;;3.20;99.90;;;;;;5097148;28;20028;-84
2020/12/10 05:46:20;;;;;;;191.32;54.60;;;3.20;99.90;;;;;;5095704;28;20012;-84
2020/12/10 05:48:47;;;;;;;207.32;57.75;;;3.20;99.90;;;;;;5094501;28;20020;-84
2020/12/10 05:51:23;;;;;;;213.02;57.10;;;3.20;99.90;;;;;;5111751;28;20054;-85
2020/12/10 05:53:50;;;;;;;204.43;56.22;;;3.20;99.90;;;;;;5080327;28;20032;-85
2020/12/10 05:56:17;;;;;;;207.05;58.88;;;3.20;99.90;;;;;;5093982;28;20020;-84
2020/12/10 05:58:53;;;;;;;226.88;60.25;;;3.30;99.90;;;;;;5072761;28;20377;-84
2020/12/10 06:01:31;;;;;;;202.05;55.80;;;3.30;99.90;;;;;;5067833;28;20028;-84
2020/12/10 06:03:57;;;;;;;209.40;60.42;;;3.40;99.90;;;;;;5088543;28;20141;-84
2020/12/10 06:06:28;;;;;;;176.40;52.72;;;3.30;99.90;;;;;;5070125;28;20020;-85
2020/12/10 06:09:03;;;;;;;224.88;58.53;;;3.40;99.90;;;;;;5072188;28;20453;-84
2020/12/10 06:11:31;;;;;;;193.85;56.08;;;3.40;99.90;;;;;;5079353;28;20428;-85
2020/12/10 06:14:05;;;;;;;221.07;60.67;;;3.30;99.90;;;;;;5080992;28;20036;-84
2020/12/10 06:16:32;;;;;;;212.57;57.85;;;3.40;99.90;;;;;;5079075;28;20031;-84
2020/12/10 06:19:01;;;;;;;207.00;56.55;;;3.50;99.90;;;;;;5069765;28;20059;-84
2020/12/10 06:21:48;;;;;;;209.40;60.20;;;3.50;99.90;;;;;;5069516;28;20039;-84
2020/12/10 06:24:31;;;;;;;208.48;56.60;;;3.40;99.90;;;;;;5086845;28;20073;-85
2020/12/10 06:26:57;;;;;;;201.20;58.40;;;3.40;99.90;;;;;;5071016;28;20075;-84
2020/12/10 06:29:24;;;;;;;207.60;57.85;;;3.40;99.90;;;;;;5072792;28;20051;-84
2020/12/10 06:32:08;;;;;;;227.90;58.08;;;3.50;99.90;;;;;;5093568;28;20028;-84
2020/12/10 06:34:41;;;;;;;207.73;54.58;;;3.50;99.90;;;;;;5073126;28;20028;-85
2020/12/10 06:37:14;;;;;;;202.57;55.95;;;3.50;99.90;;;;;;5072138;28;20030;-84
2020/12/10 06:39:39;;;;;;;193.93;56.58;;;3.50;99.90;;;;;;5073842;28;20020;-84
2020/12/10 06:42:06;;;;;;;194.63;57.92;;;3.50;99.90;;;;;;5074576;28;20373;-84
2020/12/10 06:44:33;;;;;;;197.35;55.80;;;3.50;99.90;;;;;;5089766;28;20099;-85
2020/12/10 06:47:00;;;;;;;198.80;57.95;;;3.60;99.90;;;;;;5073279;28;20036;-84
2020/12/10 06:49:31;;;;;;;218.07;61.03;;;3.70;99.90;;;;;;5072584;28;20025;-84
2020/12/10 06:52:14;;;;;;;189.50;55.50;;;3.70;99.90;;;;;;5055432;28;20063;-84
2020/12/10 06:55:05;;;;;;;191.52;58.15;;;3.80;99.90;;;;;;5075987;28;20038;-84
2020/12/10 06:58:00;;;;;;;198.48;57.88;;;3.80;99.90;;;;;;5071688;28;20042;-85
2020/12/10 07:00:46;;;;;;;193.02;58.70;;;3.80;99.90;;;;;;5073770;28;20051;-84
2020/12/10 07:03:18;;;;;;;178.43;54.20;;;3.80;99.90;;;;;;5053206;28;20412;-84
2020/12/10 07:05:44;;;;;;;187.23;55.67;;;3.80;99.90;;;;;;5076055;28;20737;-85
2020/12/10 07:08:11;;;;;;;195.13;53.53;;;3.90;99.90;;;;;;5064018;28;20048;-84
2020/12/10 07:10:45;;;;;;;174.98;53.38;;;3.90;99.90;;;;;;5072370;28;20027;-84
2020/12/10 07:13:12;;;;;;;181.00;53.55;;;4.00;99.90;;;;;;5068808;28;20391;-84
2020/12/10 07:15:38;;;;;;;174.05;51.30;;;4.00;99.90;;;;;;5063748;28;20111;-85
2020/12/10 07:18:05;;;;;;;212.23;55.58;;;4.00;99.90;;;;;;5070760;28;20104;-84
2020/12/10 07:20:32;;;;;;;185.30;54.40;;;3.90;99.90;;;;;;5067101;28;20044;-84
2020/12/10 07:22:59;;;;;;;176.32;54.80;;;3.90;99.90;;;;;;5071729;28;20127;-84
2020/12/10 07:25:24;;;;;;;198.82;55.25;;;3.90;99.90;;;;;;5073642;28;20051;-85
2020/12/10 07:27:50;;;;;;;186.43;55.80;;;4.00;99.90;;;;;;5067985;28;20036;-84
2020/12/10 07:30:18;;;;;;;188.38;53.33;;;4.00;99.90;;;;;;5053593;28;20025;-84
2020/12/10 07:32:44;;;;;;;186.65;54.78;;;4.00;99.90;;;;;;5059922;28;20040;-84
2020/12/10 07:35:11;;;;;;;194.68;54.13;;;4.00;99.90;;;;;;5064899;28;20112;-84
2020/12/10 07:37:40;;;;;;;185.93;55.17;;;4.00;99.90;;;;;;5068325;28;20398;-84
2020/12/10 07:40:09;;;;;;;187.00;54.33;;;4.00;99.90;;;;;;5093286;28;20464;-84
2020/12/10 07:42:34;;;;;;;187.70;55.05;;;4.10;99.90;;;;;;5067394;28;20045;-85
2020/12/10 07:45:20;;;;;;;195.07;54.88;;;4.00;99.90;;;;;;5068856;28;20040;-84
2020/12/10 07:48:00;;;;;;;198.73;55.53;;;4.00;99.90;;;;;;5070415;28;20120;-84
2020/12/10 07:50:28;;;;;;;192.80;53.47;;;4.10;99.90;;;;;;5087474;28;20515;-84
2020/12/10 07:52:55;;;;;;;202.18;57.25;;;4.10;99.90;;;;;;5064133;28;20084;-84
2020/12/10 07:55:28;;;;;;;208.40;55.03;;;4.10;99.90;;;;;;5062911;28;20051;-84
2020/12/10 07:58:19;;;;;;;194.52;54.45;;;4.10;99.90;;;;;;5032114;28;20036;-84
2020/12/10 08:00:46;;;;;;;190.00;54.40;;;4.10;99.90;;;;;;5055529;28;20040;-84
2020/12/10 08:03:33;;;;;;;181.25;52.30;;;4.10;99.90;;;;;;5044780;28;20439;-84
2020/12/10 08:06:07;;;;;;;199.70;53.22;;;4.10;99.90;;;;;;5064442;28;20021;-84
2020/12/10 08:08:44;;;;;;;177.35;50.80;;;4.10;99.90;;;;;;5061779;28;20028;-83
2020/12/10 08:11:27;;;;;;;175.85;48.38;;;4.20;99.90;;;;;;5063710;28;20048;-83
2020/12/10 08:14:07;;;;;;;169.55;48.30;;;4.20;99.90;;;;;;5065436;28;20539;-83
2020/12/10 08:16:43;;;;;;;183.13;53.75;;;4.10;99.90;;;;;;5062727;28;20048;-83
2020/12/10 08:19:19;;;;;;;208.32;54.05;;;4.20;99.90;;;;;;5062048;28;20051;-83
2020/12/10 08:21:46;;;;;;;188.60;52.95;;;4.20;99.90;;;;;;5045847;28;20190;-84
2020/12/10 08:24:13;;;;;;;203.05;53.22;;;4.20;99.90;;;;;;5065218;28;20040;-83
2020/12/10 08:26:42;;;;;;;220.30;55.38;;;4.20;99.90;;;;;;5058931;28;20056;-83
2020/12/10 08:29:14;;;;;;;201.75;54.65;;;4.10;99.90;;;;;;5063479;28;20344;-84
2020/12/10 08:31:39;;;;;;;194.05;56.42;;;4.10;99.90;;;;;;5060263;28;20042;-84
2020/12/10 08:34:17;;;;;;;217.63;60.90;;;4.10;99.90;;;;;;5064599;28;20024;-84
2020/12/10 08:36:43;;;;;;;217.43;62.00;;;4.10;99.90;;;;;;5068012;28;20472;-84
2020/12/10 08:39:09;;;;;;;210.75;59.63;;;4.10;99.90;;;;;;5059745;28;20178;-82
2020/12/10 08:41:36;;;;;;;207.70;57.67;;;4.10;99.90;;;;;;5064993;28;20103;-84
2020/12/10 08:44:07;;;;;;;210.75;54.08;;;4.10;99.90;;;;;;5091107;28;20028;-84
2020/12/10 08:46:38;;;;;;;197.45;52.30;;;4.00;99.90;;;;;;5086627;28;20085;-84
2020/12/10 08:49:22;;;;;;;208.57;54.38;;;4.00;99.90;;;;;;5085828;28;20057;-83
2020/12/10 08:51:50;;;;;;;204.18;51.83;;;4.10;99.90;;;;;;5092041;28;20056;-84
2020/12/10 08:54:16;;;;;;;212.70;54.60;;;4.10;99.90;;;;;;5095406;28;20072;-84
2020/12/10 08:56:42;;;;;;;204.43;54.55;;;4.10;99.90;;;;;;5101204;28;20016;-85
2020/12/10 08:59:11;;;;;;;189.40;50.60;;;4.10;99.90;;;;;;5094155;28;20043;-84
2020/12/10 09:01:51;;;;;;;183.98;52.60;;;4.00;99.90;;;;;;5094939;28;20104;-85
2020/12/10 09:04:19;;;;;;;189.98;51.53;;;4.10;99.90;;;;;;5114195;27;20036;-84
2020/12/10 09:06:44;;;;;;;205.75;50.05;;;4.10;99.90;;;;;;5095877;28;20038;-84
2020/12/10 09:09:10;;;;;;;192.23;51.00;;;4.10;99.90;;;;;;5091295;28;20020;-83
2020/12/10 09:11:36;;;;;;;222.75;56.10;;;4.10;99.90;;;;;;5089274;28;20056;-83
2020/12/10 09:14:01;;;;;;;228.95;54.47;;;4.10;99.90;;;;;;5085516;28;20045;-84
2020/12/10 09:16:28;;;;;;;219.88;57.03;;;4.10;99.90;;;;;;5084140;28;20096;-83
2020/12/10 09:18:53;;;;;;;218.40;53.00;;;4.20;99.90;;;;;;5077884;28;20020;-84
2020/12/10 09:21:20;;;;;;;181.88;50.42;;;4.20;99.90;;;;;;5064088;28;20048;-83
2020/12/10 09:23:46;;;;;;;211.88;51.92;;;4.20;99.90;;;;;;5065734;28;20395;-84
2020/12/10 09:26:13;;;;;;;192.43;51.38;;;4.20;99.90;;;;;;5064685;28;20047;-83
2020/12/10 09:28:39;;;;;;;202.30;51.75;;;4.20;99.90;;;;;;5083896;28;20059;-84
2020/12/10 09:31:05;;;;;;;174.27;48.55;;;4.10;99.90;;;;;;5061311;28;20069;-83
2020/12/10 09:33:30;;;;;;;185.95;49.13;;;4.10;99.90;;;;;;5061970;28;20127;-83
2020/12/10 09:35:56;;;;;;;180.70;46.97;;;4.10;99.90;;;;;;5077863;28;20037;-82
2020/12/10 09:38:22;;;;;;;159.88;44.35;;;4.20;99.90;;;;;;5043874;28;20037;-82
2020/12/10 09:40:48;;;;;;;170.75;45.25;;;4.20;99.90;;;;;;5043299;28;20033;-81
2020/12/10 09:43:14;;;;;;;135.68;41.15;;;4.20;99.90;;;;;;5036326;28;20119;-81
2020/12/10 09:45:42;;;;;;;135.80;40.83;;;4.20;99.90;;;;;;5050968;28;20508;-82
2020/12/10 09:48:08;;;;;;;144.80;44.60;;;4.20;99.90;;;;;;5038530;28;20045;-82
2020/12/10 09:50:36;;;;;;;118.88;36.70;;;4.20;99.90;;;;;;5042578;28;20277;-82
2020/12/10 09:56:09;;;;;;;121.38;38.10;;;4.10;99.90;;;;;;5053131;28;20066;-82
2020/12/10 09:58:29;;;;;;;136.55;38.60;;;4.10;99.90;;;;;;5056836;28;20036;-82
2020/12/10 10:00:55;;;;;;;124.93;37.60;;;4.10;99.90;;;;;;5039627;28;20512;-83
2020/12/10 10:03:21;;;;;;;137.15;40.00;;;4.30;99.90;;;;;;5026737;28;20048;-84
2020/12/10 10:05:47;;;;;;;123.82;38.03;;;4.30;99.90;;;;;;5056089;28;20033;-85
2020/12/10 10:08:14;;;;;;;131.23;38.45;;;4.30;99.90;;;;;;5044376;28;20040;-84
2020/12/10 10:10:39;;;;;;;112.28;35.60;;;4.30;99.90;;;;;;5052781;28;20028;-83
2020/12/10 10:13:05;;;;;;;124.85;37.95;;;4.20;99.90;;;;;;5055473;28;20070;-82
2020/12/10 10:15:31;;;;;;;130.13;36.83;;;4.30;99.90;;;;;;5053751;28;20493;-83
2020/12/10 10:18:01;;;;;;;109.10;34.55;;;4.40;99.90;;;;;;5053484;28;20101;-82
2020/12/10 10:20:27;;;;;;;105.30;32.45;;;4.30;99.90;;;;;;5039965;28;20033;-83
2020/12/10 10:22:56;;;;;;;107.72;34.65;;;4.40;99.90;;;;;;5052934;28;20049;-83
2020/12/10 10:25:21;;;;;;;114.28;35.83;;;4.40;99.90;;;;;;5025008;28;20544;-84
2020/12/10 10:27:49;;;;;;;111.88;36.90;;;4.40;99.90;;;;;;5055141;28;20106;-83
2020/12/10 10:30:15;;;;;;;115.55;36.05;;;4.50;99.90;;;;;;5068936;28;20017;-84
2020/12/10 10:32:41;;;;;;;103.18;31.55;;;4.50;99.90;;;;;;5048725;28;20064;-83
2020/12/10 10:35:06;;;;;;;126.25;35.58;;;4.50;99.90;;;;;;5060627;28;20023;-83
2020/12/10 10:37:32;;;;;;;97.22;31.20;;;4.50;99.90;;;;;;5040423;28;20057;-83
2020/12/10 10:39:58;;;;;;;101.22;33.00;;;4.60;99.90;;;;;;5021830;28;20044;-80
2020/12/10 10:42:23;;;;;;;74.55;27.13;;;4.40;99.90;;;;;;5053852;28;20151;-80
2020/12/10 10:44:49;;;;;;;109.75;32.35;;;4.40;99.90;;;;;;5062773;28;20051;-84
2020/12/10 10:47:15;;;;;;;104.97;33.50;;;4.30;99.90;;;;;;5066425;28;20037;-83
2020/12/10 10:49:40;;;;;;;98.13;31.63;;;4.40;99.90;;;;;;5077756;28;20036;-84
2020/12/10 10:52:06;;;;;;;100.57;32.28;;;4.50;99.90;;;;;;5057723;28;20034;-84
2020/12/10 10:54:31;;;;;;;102.82;32.40;;;4.50;99.90;;;;;;5061540;28;20357;-85
2020/12/10 10:56:57;;;;;;;96.38;31.42;;;4.50;99.90;;;;;;5072367;28;20075;-84
2020/12/10 10:59:23;;;;;;;107.15;34.85;;;4.50;99.90;;;;;;5056065;28;20036;-83
2020/12/10 11:01:49;;;;;;;85.82;30.45;;;4.50;99.90;;;;;;5043218;28;20044;-83
2020/12/10 11:04:16;;;;;;;87.60;32.53;;;4.50;99.90;;;;;;5058156;28;20111;-82
2020/12/10 11:06:41;;;;;;;92.85;32.72;;;4.50;99.90;;;;;;5063932;28;20153;-84
2020/12/10 11:09:07;;;;;;;102.25;34.58;;;4.50;99.90;;;;;;5059491;28;20101;-83
2020/12/10 11:11:33;;;;;;;101.25;33.50;;;4.60;99.90;;;;;;5049997;28;20754;-85
2020/12/10 11:14:00;;;;;;;94.47;32.28;;;4.60;99.90;;;;;;5065218;28;20020;-84
2020/12/10 11:16:27;;;;;;;85.45;31.77;;;4.60;99.90;;;;;;5084022;28;20031;-85
2020/12/10 11:18:53;;;;;;;93.15;30.85;;;4.60;99.90;;;;;;5088102;28;20538;-85
2020/12/10 11:21:26;;;;;;;83.97;30.85;;;4.50;99.90;;;;;;5063599;28;20028;-85
2020/12/10 11:23:53;;;;;;;78.45;28.90;;;4.50;99.90;;;;;;5084106;28;20106;-84
2020/12/10 11:26:20;;;;;;;88.85;31.85;;;4.40;99.90;;;;;;5066020;28;20047;-85
2020/12/10 11:28:46;;;;;;;84.93;30.83;;;4.60;99.90;;;;;;5049743;28;20042;-84
2020/12/10 11:31:12;;;;;;;81.75;29.08;;;4.60;99.90;;;;;;5061738;28;20043;-84
2020/12/10 11:33:39;;;;;;;79.85;30.13;;;4.70;99.90;;;;;;5063584;28;20107;-85
2020/12/10 11:36:06;;;;;;;89.95;31.88;;;4.60;99.90;;;;;;5068290;28;20082;-84
2020/12/10 11:38:31;;;;;;;82.53;31.30;;;4.60;99.90;;;;;;5066206;28;20033;-84
2020/12/10 11:40:57;;;;;;;77.95;29.00;;;4.70;99.90;;;;;;5062498;28;20090;-84
2020/12/10 11:43:23;;;;;;;76.10;29.52;;;4.70;99.90;;;;;;5068269;28;20059;-85
2020/12/10 11:45:50;;;;;;;79.05;27.65;;;4.70;99.90;;;;;;5051024;28;20036;-84
2020/12/10 11:48:15;;;;;;;74.97;27.92;;;4.60;99.90;;;;;;5058551;28;20108;-85
2020/12/10 11:50:43;;;;;;;74.07;28.98;;;4.70;99.90;;;;;;5054703;28;20043;-84
2020/12/10 11:53:12;;;;;;;82.18;30.98;;;4.70;99.90;;;;;;5054788;28;20135;-83
2020/12/10 11:55:39;;;;;;;81.55;29.90;;;4.80;99.90;;;;;;5042853;28;20108;-84
2020/12/10 11:58:04;;;;;;;84.03;29.83;;;4.80;99.90;;;;;;5063626;28;20048;-84
2020/12/10 12:00:31;;;;;;;82.97;29.25;;;4.80;99.90;;;;;;5061661;28;20147;-84
2020/12/10 12:02:56;;;;;;;71.00;27.73;;;4.80;99.90;;;;;;5060956;28;20051;-83
2020/12/10 12:05:24;;;;;;;71.05;26.67;;;4.70;99.90;;;;;;5042399;28;20048;-83
2020/12/10 12:07:49;;;;;;;67.43;26.92;;;4.70;99.90;;;;;;5043708;28;20384;-83
2020/12/10 12:10:19;;;;;;;75.53;27.23;;;4.80;99.90;;;;;;5026048;28;20045;-82
2020/12/10 12:12:45;;;;;;;76.97;26.88;;;4.80;99.90;;;;;;5039717;28;21655;-83
2020/12/10 12:15:11;;;;;;;74.53;27.90;;;4.80;99.90;;;;;;5043917;28;20085;-83
2020/12/10 12:17:44;;;;;;;71.13;28.63;;;4.80;99.90;;;;;;5059732;28;20048;-83
2020/12/10 12:20:10;;;;;;;73.25;28.75;;;4.80;99.90;;;;;;5056741;28;20044;-83
2020/12/10 12:22:37;;;;;;;68.85;29.90;;;4.90;99.90;;;;;;5048486;28;20497;-82
2020/12/10 12:25:03;;;;;;;71.60;29.45;;;4.90;99.90;;;;;;5054192;28;20037;-83
2020/12/10 12:27:31;;;;;;;65.35;26.48;;;4.80;99.90;;;;;;5074859;28;20120;-83
2020/12/10 12:29:57;;;;;;;83.40;29.33;;;4.90;99.90;;;;;;5061576;28;20502;-83
2020/12/10 12:32:23;;;;;;;57.03;24.88;;;4.80;99.90;;;;;;5044655;28;20079;-83
2020/12/10 12:34:49;;;;;;;64.07;28.55;;;4.70;99.90;;;;;;5012275;28;20059;-84